createdAt,value
2022-12-22T00:00:47.810Z,48.35
2022-12-22T00:01:50.158Z,48.69
2022-12-22T00:02:48.137Z,48.60
2022-12-22T00:03:47.878Z,48.57
2022-12-22T00:04:47.762Z,48.60
2022-12-22T00:05:47.756Z,48.66
2022-12-22T00:06:47.740Z,48.43
2022-12-22T00:07:47.715Z,48.43
2022-12-22T00:08:47.797Z,48.49
2022-12-22T00:09:47.745Z,48.26
2022-12-22T00:10:47.712Z,48.26
2022-12-22T00:11:47.744Z,48.15
2022-12-22T00:12:47.703Z,47.79
2022-12-22T00:13:47.682Z,47.71
2022-12-22T00:14:47.671Z,47.33
2022-12-22T00:15:47.647Z,47.35
2022-12-22T00:16:47.750Z,47.68
2022-12-22T00:17:47.646Z,47.93
2022-12-22T00:18:47.621Z,48.15
2022-12-22T00:19:47.607Z,47.98
2022-12-22T00:20:47.639Z,48.12
2022-12-22T00:21:47.585Z,48.15
2022-12-22T00:22:47.599Z,48.12
2022-12-22T00:23:47.573Z,48.15
2022-12-22T00:24:47.545Z,47.71
2022-12-22T00:25:47.554Z,47.33
2022-12-22T00:26:47.547Z,46.49
2022-12-22T00:27:47.562Z,46.07
2022-12-22T00:28:47.516Z,44.88
2022-12-22T00:29:47.511Z,44.07
2022-12-22T00:30:47.571Z,43.29
2022-12-22T00:31:47.504Z,43.52
2022-12-22T00:32:47.485Z,43.56
2022-12-22T00:33:47.520Z,43.43
2022-12-22T00:34:47.470Z,42.67
2022-12-22T00:35:47.506Z,42.63
2022-12-22T00:36:47.430Z,42.45
2022-12-22T00:37:47.461Z,42.07
2022-12-22T00:38:47.441Z,42.15
2022-12-22T00:39:47.445Z,42.28
2022-12-22T00:40:47.430Z,42.58
2022-12-22T00:41:47.404Z,42.45
2022-12-22T00:42:47.466Z,42.32
2022-12-22T00:43:47.374Z,42.32
2022-12-22T00:44:47.439Z,42.50
2022-12-22T00:45:47.401Z,42.11
2022-12-22T00:46:47.372Z,41.77
2022-12-22T00:47:47.333Z,41.31
2022-12-22T00:48:47.392Z,40.83
2022-12-22T00:49:47.327Z,40.67
2022-12-22T00:50:47.297Z,40.71
2022-12-22T00:51:47.288Z,40.71
2022-12-22T00:52:47.280Z,40.75
2022-12-22T00:53:47.274Z,40.99
2022-12-22T00:54:47.358Z,40.87
2022-12-22T00:55:47.246Z,40.91
2022-12-22T00:56:47.242Z,40.51
2022-12-22T00:57:47.234Z,40.47
2022-12-22T00:58:47.326Z,40.55
2022-12-22T00:59:47.275Z,40.31
2022-12-22T01:00:47.233Z,40.47
2022-12-22T01:01:47.310Z,40.35
2022-12-22T01:02:47.301Z,40.39
2022-12-22T01:03:47.239Z,40.55
2022-12-22T01:04:47.228Z,40.75
2022-12-22T01:05:47.182Z,41.15
2022-12-22T01:06:47.161Z,41.07
2022-12-22T01:07:47.137Z,41.11
2022-12-22T01:08:47.227Z,41.44
2022-12-22T01:09:47.194Z,41.35
2022-12-22T01:10:47.100Z,41.56
2022-12-22T01:11:47.132Z,41.90
2022-12-22T01:12:47.217Z,42.28
2022-12-22T01:13:47.150Z,42.24
2022-12-22T01:14:47.085Z,42.28
2022-12-22T01:15:47.099Z,42.41
2022-12-22T01:16:47.080Z,42.50
2022-12-22T01:17:47.122Z,42.85
2022-12-22T01:18:47.039Z,43.02
2022-12-22T01:19:47.046Z,43.25
2022-12-22T01:20:47.094Z,43.38
2022-12-22T01:21:46.989Z,43.56
2022-12-22T01:22:47.029Z,43.65
2022-12-22T01:23:47.036Z,44.03
2022-12-22T01:24:46.968Z,44.40
2022-12-22T01:25:46.976Z,44.31
2022-12-22T01:26:46.941Z,44.31
2022-12-22T01:27:46.985Z,44.50
2022-12-22T01:28:46.923Z,44.50
2022-12-22T01:29:46.912Z,44.69
2022-12-22T01:30:46.923Z,44.78
2022-12-22T01:31:46.998Z,45.07
2022-12-22T01:32:46.906Z,45.22
2022-12-22T01:33:46.882Z,45.42
2022-12-22T01:34:46.865Z,45.52
2022-12-22T01:35:46.875Z,45.77
2022-12-22T01:36:46.848Z,45.77
2022-12-22T01:37:46.917Z,46.12
2022-12-22T01:38:46.870Z,46.43
2022-12-22T01:39:46.857Z,46.90
2022-12-22T01:40:46.804Z,46.80
2022-12-22T01:41:46.816Z,46.90
2022-12-22T01:42:46.840Z,47.01
2022-12-22T01:43:46.783Z,46.85
2022-12-22T01:44:46.777Z,46.98
2022-12-22T01:45:46.786Z,46.90
2022-12-22T01:46:46.978Z,47.19
2022-12-22T01:47:46.827Z,47.25
2022-12-22T01:48:46.750Z,47.27
2022-12-22T01:49:46.722Z,47.17
2022-12-22T01:50:46.724Z,47.17
2022-12-22T01:51:46.704Z,47.54
2022-12-22T01:52:46.678Z,47.03
2022-12-22T01:53:46.714Z,47.17
2022-12-22T01:54:46.662Z,47.25
2022-12-22T01:55:46.653Z,46.90
2022-12-22T01:56:46.741Z,46.80
2022-12-22T01:57:46.638Z,46.80
2022-12-22T01:58:46.655Z,46.90
2022-12-22T01:59:46.668Z,46.75
2022-12-22T02:00:46.622Z,46.75
2022-12-22T02:01:46.708Z,46.85
2022-12-22T02:02:46.753Z,46.75
2022-12-22T02:03:46.687Z,46.87
2022-12-22T02:04:46.591Z,47.14
2022-12-22T02:05:46.556Z,47.09
2022-12-22T02:06:46.602Z,47.22
2022-12-22T02:07:46.544Z,47.22
2022-12-22T02:08:46.521Z,47.54
2022-12-22T02:09:46.593Z,47.52
2022-12-22T02:10:46.589Z,47.68
2022-12-22T02:11:46.496Z,47.82
2022-12-22T02:12:46.542Z,48.23
2022-12-22T02:13:46.492Z,48.32
2022-12-22T02:14:46.511Z,48.51
2022-12-22T02:15:46.567Z,48.60
2022-12-22T02:16:46.469Z,48.80
2022-12-22T02:17:46.446Z,48.80
2022-12-22T02:18:46.431Z,49.03
2022-12-22T02:19:46.435Z,49.03
2022-12-22T02:20:46.423Z,49.00
2022-12-22T02:21:46.426Z,49.35
2022-12-22T02:22:46.430Z,49.17
2022-12-22T02:23:46.376Z,49.29
2022-12-22T02:24:46.370Z,49.03
2022-12-22T02:25:46.423Z,49.21
2022-12-22T02:26:46.345Z,49.21
2022-12-22T02:27:46.352Z,49.41
2022-12-22T02:28:46.422Z,49.29
2022-12-22T02:29:46.466Z,49.62
2022-12-22T02:30:46.320Z,49.53
2022-12-22T02:31:46.407Z,49.38
2022-12-22T02:32:46.320Z,49.47
2022-12-22T02:33:46.318Z,49.50
2022-12-22T02:34:46.279Z,49.38
2022-12-22T02:35:46.288Z,49.56
2022-12-22T02:36:46.257Z,49.47
2022-12-22T02:37:46.297Z,49.23
2022-12-22T02:38:46.244Z,49.56
2022-12-22T02:39:46.252Z,49.50
2022-12-22T02:40:46.219Z,49.82
2022-12-22T02:41:46.213Z,49.76
2022-12-22T02:42:46.376Z,49.38
2022-12-22T02:43:46.251Z,49.47
2022-12-22T02:44:46.170Z,49.23
2022-12-22T02:45:46.218Z,49.38
2022-12-22T02:46:46.276Z,49.21
2022-12-22T02:47:46.173Z,49.21
2022-12-22T02:48:46.139Z,49.15
2022-12-22T02:49:46.303Z,49.35
2022-12-22T02:50:46.439Z,49.53
2022-12-22T02:51:46.149Z,49.50
2022-12-22T02:52:46.156Z,49.47
2022-12-22T02:53:46.091Z,49.50
2022-12-22T02:54:46.134Z,49.56
2022-12-22T02:55:46.093Z,49.32
2022-12-22T02:56:46.178Z,49.23
2022-12-22T02:57:46.055Z,49.21
2022-12-22T02:58:46.059Z,49.21
2022-12-22T02:59:46.051Z,48.86
2022-12-22T03:00:46.083Z,49.06
2022-12-22T03:01:46.138Z,48.74
2022-12-22T03:02:46.185Z,48.83
2022-12-22T03:03:46.038Z,48.69
2022-12-22T03:04:46.017Z,48.57
2022-12-22T03:05:45.984Z,48.57
2022-12-22T03:06:45.956Z,48.32
2022-12-22T03:07:45.963Z,48.09
2022-12-22T03:08:46.041Z,48.18
2022-12-22T03:09:45.982Z,48.01
2022-12-22T03:10:45.947Z,48.43
2022-12-22T03:11:45.911Z,48.18
2022-12-22T03:12:45.959Z,48.51
2022-12-22T03:13:46.049Z,48.23
2022-12-22T03:14:45.910Z,48.07
2022-12-22T03:15:45.900Z,48.15
2022-12-22T03:16:45.859Z,48.49
2022-12-22T03:17:45.867Z,48.60
2022-12-22T03:18:45.964Z,48.40
2022-12-22T03:19:45.840Z,48.60
2022-12-22T03:20:45.844Z,48.92
2022-12-22T03:21:45.814Z,48.92
2022-12-22T03:22:45.947Z,48.94
2022-12-22T03:23:45.801Z,49.06
2022-12-22T03:24:45.823Z,49.03
2022-12-22T03:25:45.786Z,49.23
2022-12-22T03:26:45.764Z,49.29
2022-12-22T03:27:45.859Z,49.41
2022-12-22T03:28:45.752Z,49.21
2022-12-22T03:29:45.765Z,49.12
2022-12-22T03:30:45.740Z,49.09
2022-12-22T03:31:45.811Z,49.44
2022-12-22T03:32:45.713Z,49.35
2022-12-22T03:33:45.724Z,49.47
2022-12-22T03:34:45.783Z,49.67
2022-12-22T03:35:45.690Z,49.67
2022-12-22T03:36:45.691Z,49.94
2022-12-22T03:37:45.692Z,49.59
2022-12-22T03:38:45.677Z,49.82
2022-12-22T03:39:45.629Z,49.91
2022-12-22T03:40:45.636Z,50.09
2022-12-22T03:41:45.628Z,49.94
2022-12-22T03:42:45.646Z,50.03
2022-12-22T03:43:45.616Z,50.34
2022-12-22T03:44:45.651Z,50.40
2022-12-22T03:45:45.578Z,50.46
2022-12-22T03:46:45.622Z,50.52
2022-12-22T03:47:45.572Z,50.55
2022-12-22T03:48:45.825Z,50.71
2022-12-22T03:49:45.546Z,50.64
2022-12-22T03:50:45.564Z,50.31
2022-12-22T03:51:45.542Z,50.09
2022-12-22T03:52:45.549Z,50.12
2022-12-22T03:53:45.521Z,50.43
2022-12-22T03:54:45.523Z,50.19
2022-12-22T03:55:45.479Z,50.12
2022-12-22T03:56:45.505Z,50.31
2022-12-22T03:57:45.536Z,50.34
2022-12-22T03:58:45.468Z,49.94
2022-12-22T03:59:45.464Z,49.79
2022-12-22T04:00:45.503Z,49.94
2022-12-22T04:01:45.680Z,49.62
2022-12-22T04:02:45.623Z,49.85
2022-12-22T04:03:45.424Z,50.03
2022-12-22T04:04:45.394Z,50.03
2022-12-22T04:05:45.394Z,49.94
2022-12-22T04:06:45.400Z,49.97
2022-12-22T04:07:45.389Z,50.25
2022-12-22T04:08:45.433Z,49.94
2022-12-22T04:09:45.495Z,49.73
2022-12-22T04:10:45.337Z,49.62
2022-12-22T04:11:45.370Z,49.67
2022-12-22T04:12:45.351Z,49.85
2022-12-22T04:13:45.335Z,49.65
2022-12-22T04:14:45.305Z,49.59
2022-12-22T04:15:45.286Z,49.67
2022-12-22T04:16:45.388Z,49.67
2022-12-22T04:17:45.269Z,50.15
2022-12-22T04:18:45.274Z,50.12
2022-12-22T04:19:45.279Z,49.73
2022-12-22T04:20:45.263Z,49.82
2022-12-22T04:21:45.243Z,49.76
2022-12-22T04:22:45.286Z,49.53
2022-12-22T04:23:45.287Z,49.79
2022-12-22T04:24:45.203Z,49.85
2022-12-22T04:25:45.222Z,50.06
2022-12-22T04:26:45.255Z,50.25
2022-12-22T04:27:45.190Z,50.58
2022-12-22T04:28:45.231Z,50.55
2022-12-22T04:29:45.164Z,50.46
2022-12-22T04:30:45.150Z,50.64
2022-12-22T04:31:45.205Z,51.02
2022-12-22T04:32:45.127Z,50.86
2022-12-22T04:33:45.168Z,50.83
2022-12-22T04:34:45.127Z,51.33
2022-12-22T04:35:45.126Z,51.65
2022-12-22T04:36:45.078Z,52.20
2022-12-22T04:37:45.099Z,52.47
2022-12-22T04:38:45.077Z,52.43
2022-12-22T04:39:45.057Z,52.04
2022-12-22T04:40:45.071Z,52.37
2022-12-22T04:41:45.179Z,52.60
2022-12-22T04:42:45.041Z,52.27
2022-12-22T04:43:45.067Z,52.20
2022-12-22T04:44:45.029Z,51.91
2022-12-22T04:45:45.056Z,51.55
2022-12-22T04:46:44.989Z,52.01
2022-12-22T04:47:45.027Z,52.33
2022-12-22T04:48:44.968Z,52.80
2022-12-22T04:49:44.970Z,52.63
2022-12-22T04:50:44.959Z,52.76
2022-12-22T04:51:44.994Z,53.03
2022-12-22T04:52:44.940Z,53.14
2022-12-22T04:53:44.929Z,53.24
2022-12-22T04:54:44.945Z,53.38
2022-12-22T04:55:44.965Z,53.82
2022-12-22T04:56:44.937Z,54.10
2022-12-22T04:57:44.884Z,54.60
2022-12-22T04:58:44.892Z,54.49
2022-12-22T04:59:44.892Z,54.75
2022-12-22T05:00:44.882Z,54.96
2022-12-22T05:01:45.027Z,55.04
2022-12-22T05:02:44.940Z,55.33
2022-12-22T05:03:44.945Z,55.62
2022-12-22T05:04:44.822Z,55.81
2022-12-22T05:05:44.801Z,56.30
2022-12-22T05:06:44.832Z,56.23
2022-12-22T05:07:44.793Z,56.46
2022-12-22T05:08:44.813Z,57.00
2022-12-22T05:09:44.904Z,57.08
2022-12-22T05:10:44.760Z,57.79
2022-12-22T05:11:44.756Z,58.24
2022-12-22T05:12:44.751Z,58.69
2022-12-22T05:13:44.777Z,59.62
2022-12-22T05:14:44.716Z,59.70
2022-12-22T05:15:44.703Z,59.87
2022-12-22T05:16:44.766Z,60.48
2022-12-22T05:17:44.731Z,61.19
2022-12-22T05:18:44.781Z,62.20
2022-12-22T05:19:44.671Z,62.25
2022-12-22T05:20:44.671Z,63.39
2022-12-22T05:21:44.712Z,63.92
2022-12-22T05:22:44.651Z,64.52
2022-12-22T05:23:44.656Z,65.07
2022-12-22T05:24:44.660Z,65.90
2022-12-22T05:25:44.622Z,66.48
2022-12-22T05:26:44.746Z,67.02
2022-12-22T05:27:44.589Z,67.89
2022-12-22T05:28:44.617Z,68.56
2022-12-22T05:29:44.595Z,68.96
2022-12-22T05:30:44.664Z,69.66
2022-12-22T05:31:47.292Z,69.89
2022-12-22T05:32:44.532Z,70.48
2022-12-22T05:33:44.601Z,70.66
2022-12-22T05:34:44.523Z,70.42
2022-12-22T05:35:44.507Z,71.82
2022-12-22T05:36:44.525Z,71.76
2022-12-22T05:37:44.496Z,73.02
2022-12-22T05:38:44.488Z,73.60
2022-12-22T05:39:44.460Z,74.26
2022-12-22T05:40:44.465Z,75.34
2022-12-22T05:41:44.458Z,76.24
2022-12-22T05:42:44.449Z,77.16
2022-12-22T05:43:44.583Z,77.59
2022-12-22T05:44:44.425Z,77.95
2022-12-22T05:45:44.444Z,78.39
2022-12-22T05:46:44.591Z,79.37
2022-12-22T05:47:44.406Z,80.13
2022-12-22T05:48:44.415Z,81.15
2022-12-22T05:49:44.390Z,82.43
2022-12-22T05:50:44.559Z,82.60
2022-12-22T05:51:44.394Z,83.85
2022-12-22T05:52:44.392Z,85.49
2022-12-22T05:53:44.337Z,86.56
2022-12-22T05:54:44.416Z,87.47
2022-12-22T05:55:44.331Z,88.77
2022-12-22T05:56:44.298Z,89.54
2022-12-22T05:57:44.291Z,90.32
2022-12-22T05:58:44.387Z,91.11
2022-12-22T05:59:44.345Z,92.12
2022-12-22T06:00:44.342Z,92.63
2022-12-22T06:01:44.307Z,92.53
2022-12-22T06:02:44.372Z,93.26
2022-12-22T06:03:44.370Z,93.36
2022-12-22T06:04:44.245Z,92.94
2022-12-22T06:05:44.273Z,91.92
2022-12-22T06:06:44.199Z,92.63
2022-12-22T06:07:44.205Z,92.43
2022-12-22T06:08:44.223Z,92.63
2022-12-22T06:09:44.180Z,92.94
2022-12-22T06:10:44.183Z,91.92
2022-12-22T06:11:44.239Z,92.43
2022-12-22T06:12:44.147Z,92.74
2022-12-22T06:13:44.127Z,92.94
2022-12-22T06:14:44.135Z,92.84
2022-12-22T06:15:44.299Z,93.05
2022-12-22T06:16:44.102Z,93.36
2022-12-22T06:17:45.384Z,93.05
2022-12-22T06:18:44.080Z,92.32
2022-12-22T06:19:44.070Z,91.71
2022-12-22T06:20:44.097Z,91.51
2022-12-22T06:21:44.085Z,90.71
2022-12-22T06:22:44.126Z,90.32
2022-12-22T06:23:44.120Z,90.32
2022-12-22T06:24:44.023Z,90.32
2022-12-22T06:25:44.007Z,90.91
2022-12-22T06:26:44.044Z,91.92
2022-12-22T06:27:43.964Z,92.74
2022-12-22T06:28:43.970Z,93.57
2022-12-22T06:29:43.989Z,94.85
2022-12-22T06:30:44.015Z,95.07
2022-12-22T06:31:44.175Z,95.51
2022-12-22T06:32:43.895Z,93.77
2022-12-22T06:33:43.895Z,94.68
2022-12-22T06:34:43.975Z,94.30
2022-12-22T06:35:43.889Z,95.49
2022-12-22T06:36:43.875Z,94.84
2022-12-22T06:37:43.987Z,95.33
2022-12-22T06:38:43.836Z,95.60
2022-12-22T06:39:43.978Z,95.33
2022-12-22T06:40:43.821Z,95.27
2022-12-22T06:41:43.820Z,94.68
2022-12-22T06:42:43.791Z,94.78
2022-12-22T06:43:43.881Z,94.30
2022-12-22T06:44:43.790Z,94.19
2022-12-22T06:45:43.906Z,93.93
2022-12-22T06:46:43.813Z,93.77
2022-12-22T06:47:43.748Z,94.41
2022-12-22T06:48:43.734Z,95.65
2022-12-22T06:49:43.741Z,95.16
2022-12-22T06:50:43.758Z,95.49
2022-12-22T06:51:43.778Z,96.32
2022-12-22T06:52:43.768Z,96.77
2022-12-22T06:53:43.689Z,96.88
2022-12-22T06:54:43.681Z,97.62
2022-12-22T06:55:43.676Z,97.62
2022-12-22T06:56:43.664Z,97.68
2022-12-22T06:57:43.662Z,98.43
2022-12-22T06:58:43.659Z,98.31
2022-12-22T06:59:43.644Z,98.90
2022-12-22T07:00:43.636Z,98.84
2022-12-22T07:01:43.712Z,98.96
2022-12-22T07:02:43.803Z,98.84
2022-12-22T07:03:43.608Z,97.91
2022-12-22T07:04:43.595Z,98.78
2022-12-22T07:05:43.571Z,98.49
2022-12-22T07:06:43.581Z,98.96
2022-12-22T07:07:43.565Z,99.91
2022-12-22T07:08:43.538Z,100.45
2022-12-22T07:09:43.539Z,100.94
2022-12-22T07:10:43.514Z,100.82
2022-12-22T07:11:43.510Z,100.39
2022-12-22T07:12:43.537Z,100.21
2022-12-22T07:13:43.483Z,100.57
2022-12-22T07:14:43.471Z,100.33
2022-12-22T07:15:43.578Z,101.00
2022-12-22T07:16:43.573Z,101.25
2022-12-22T07:17:43.521Z,101.68
2022-12-22T07:18:43.436Z,101.43
2022-12-22T07:19:43.492Z,102.12
2022-12-22T07:20:43.419Z,102.88
2022-12-22T07:21:43.425Z,103.71
2022-12-22T07:22:43.427Z,103.97
2022-12-22T07:23:43.443Z,104.17
2022-12-22T07:24:43.372Z,103.65
2022-12-22T07:25:43.386Z,104.76
2022-12-22T07:26:43.401Z,104.56
2022-12-22T07:27:43.391Z,105.29
2022-12-22T07:28:43.458Z,107.40
2022-12-22T07:29:43.364Z,110.10
2022-12-22T07:30:43.347Z,114.81
2022-12-22T07:31:43.365Z,119.00
2022-12-22T07:32:43.355Z,122.96
2022-12-22T07:33:43.295Z,125.47
2022-12-22T07:34:43.369Z,127.49
2022-12-22T07:35:43.303Z,129.48
2022-12-22T07:36:43.294Z,132.89
2022-12-22T07:37:43.263Z,136.72
2022-12-22T07:38:43.299Z,140.53
2022-12-22T07:39:43.308Z,142.46
2022-12-22T07:40:45.024Z,144.82
2022-12-22T07:41:43.220Z,144.94
2022-12-22T07:42:43.192Z,147.12
2022-12-22T07:43:43.202Z,147.91
2022-12-22T07:44:43.199Z,148.70
2022-12-22T07:45:43.171Z,150.04
2022-12-22T07:46:43.242Z,150.18
2022-12-22T07:47:43.236Z,150.59
2022-12-22T07:48:43.151Z,152.10
2022-12-22T07:49:43.136Z,151.96
2022-12-22T07:50:43.168Z,154.51
2022-12-22T07:51:43.116Z,159.09
2022-12-22T07:52:43.113Z,165.26
2022-12-22T07:53:43.128Z,169.82
2022-12-22T07:54:43.173Z,172.10
2022-12-22T07:55:43.072Z,175.37
2022-12-22T07:56:43.083Z,181.30
2022-12-22T07:57:43.154Z,185.34
2022-12-22T07:58:43.067Z,187.36
2022-12-22T07:59:43.046Z,187.68
2022-12-22T08:00:43.033Z,191.08
2022-12-22T08:01:43.140Z,190.75
2022-12-22T08:02:43.111Z,192.55
2022-12-22T08:03:43.147Z,198.99
2022-12-22T08:04:43.209Z,203.58
2022-12-22T08:05:43.005Z,204.98
2022-12-22T08:06:42.960Z,207.19
2022-12-22T08:07:42.991Z,209.85
2022-12-22T08:08:42.961Z,217.24
2022-12-22T08:09:42.955Z,221.21
2022-12-22T08:10:42.929Z,223.33
2022-12-22T08:11:42.925Z,224.87
2022-12-22T08:12:43.050Z,227.68
2022-12-22T08:13:43.037Z,229.44
2022-12-22T08:14:42.899Z,235.05
2022-12-22T08:15:42.916Z,238.31
2022-12-22T08:16:42.936Z,242.01
2022-12-22T08:17:42.856Z,245.65
2022-12-22T08:18:42.850Z,250.35
2022-12-22T08:19:42.930Z,258.67
2022-12-22T08:20:42.831Z,265.39
2022-12-22T08:21:48.379Z,271.79
2022-12-22T08:22:42.836Z,285.57
2022-12-22T08:23:42.799Z,295.90
2022-12-22T08:24:42.800Z,295.90
2022-12-22T08:25:42.823Z,289.10
2022-12-22T08:26:42.984Z,294.84
2022-12-22T08:27:42.777Z,300.81
2022-12-22T08:28:42.765Z,303.04
2022-12-22T08:29:42.765Z,298.61
2022-12-22T08:30:42.745Z,299.98
2022-12-22T08:31:42.809Z,299.70
2022-12-22T08:32:42.717Z,299.98
2022-12-22T08:33:42.701Z,303.88
2022-12-22T08:34:42.751Z,301.64
2022-12-22T08:35:42.723Z,294.57
2022-12-22T08:36:42.706Z,293.51
2022-12-22T08:37:42.656Z,293.51
2022-12-22T08:38:42.659Z,292.73
2022-12-22T08:39:42.685Z,287.83
2022-12-22T08:40:42.693Z,284.57
2022-12-22T08:41:42.649Z,283.58
2022-12-22T08:42:42.624Z,288.34
2022-12-22T08:43:42.616Z,291.42
2022-12-22T08:44:42.944Z,302.76
2022-12-22T08:45:42.609Z,309.05
2022-12-22T08:46:42.676Z,314.10
2022-12-22T08:47:42.566Z,318.39
2022-12-22T08:48:42.627Z,319.63
2022-12-22T08:49:42.555Z,323.11
2022-12-22T08:50:42.568Z,328.30
2022-12-22T08:51:42.547Z,332.30
2022-12-22T08:52:42.519Z,330.96
2022-12-22T08:54:42.514Z,338.15
2022-12-22T08:55:42.484Z,344.93
2022-12-22T08:56:42.501Z,343.48
2022-12-22T08:57:42.474Z,332.98
2022-12-22T08:58:42.444Z,327.31
2022-12-22T08:59:42.447Z,321.52
2022-12-22T09:00:42.493Z,321.52
2022-12-22T09:01:42.578Z,318.70
2022-12-22T09:02:42.532Z,319.01
2022-12-22T09:03:42.444Z,319.63
2022-12-22T09:04:42.384Z,314.40
2022-12-22T09:05:42.531Z,310.52
2022-12-22T09:06:42.379Z,294.57
2022-12-22T09:07:42.414Z,274.30
2022-12-22T09:08:42.374Z,253.26
2022-12-22T09:09:42.351Z,246.95
2022-12-22T09:10:42.351Z,236.75
2022-12-22T09:11:42.365Z,221.66
2022-12-22T09:12:42.422Z,206.15
2022-12-22T09:13:42.312Z,192.89
2022-12-22T09:14:42.336Z,187.04
2022-12-22T09:15:42.356Z,184.93
2022-12-22T09:16:42.437Z,180.51
2022-12-22T09:17:42.361Z,177.81
2022-12-22T09:18:42.274Z,175.00
2022-12-22T09:19:42.246Z,171.92
2022-12-22T09:20:42.236Z,168.10
2022-12-22T09:21:42.305Z,164.77
2022-12-22T09:22:42.215Z,164.93
2022-12-22T09:23:42.227Z,167.09
2022-12-22T09:24:42.222Z,169.82
2022-12-22T09:25:42.607Z,169.64
2022-12-22T09:26:42.200Z,167.76
2022-12-22T09:27:42.220Z,164.60
2022-12-22T09:28:48.135Z,160.78
2022-12-22T09:29:42.139Z,160.78
2022-12-22T09:30:42.129Z,160.94
2022-12-22T09:31:42.260Z,163.31
2022-12-22T09:32:42.129Z,166.25
2022-12-22T09:33:42.170Z,170.86
2022-12-22T09:34:42.118Z,178.19
2022-12-22T09:35:42.125Z,181.30
2022-12-22T09:36:42.304Z,185.55
2022-12-22T09:37:42.055Z,190.97
2022-12-22T09:38:42.069Z,196.96
2022-12-22T09:39:42.064Z,209.58
2022-12-22T09:40:42.077Z,216.81
2022-12-22T09:41:42.068Z,223.48
2022-12-22T09:42:42.043Z,230.41
2022-12-22T09:43:42.095Z,230.25
2022-12-22T09:44:42.011Z,228.80
2022-12-22T09:45:42.070Z,234.21
2022-12-22T09:46:42.033Z,244.00
2022-12-22T09:47:41.975Z,248.64
2022-12-22T09:48:42.090Z,249.78
2022-12-22T09:49:41.972Z,253.26
2022-12-22T09:50:41.976Z,260.74
2022-12-22T09:51:41.918Z,263.26
2022-12-22T09:52:41.931Z,265.18
2022-12-22T09:53:41.926Z,264.75
2022-12-22T09:54:41.917Z,259.29
2022-12-22T09:55:41.884Z,250.16
2022-12-22T09:56:41.874Z,239.00
2022-12-22T09:57:41.872Z,228.16
2022-12-22T09:58:41.860Z,221.81
2022-12-22T09:59:41.869Z,216.24
2022-12-22T10:00:41.837Z,212.30
2022-12-22T10:01:42.080Z,206.54
2022-12-22T10:02:41.987Z,201.82
2022-12-22T10:03:41.892Z,198.15
2022-12-22T10:04:41.871Z,191.76
2022-12-22T10:05:41.814Z,187.15
2022-12-22T10:06:41.795Z,182.69
2022-12-22T10:07:41.858Z,177.43
2022-12-22T10:08:41.753Z,173.72
2022-12-22T10:09:51.187Z,168.44
2022-12-22T10:10:41.780Z,163.15
2022-12-22T10:11:41.758Z,158.48
2022-12-22T10:12:41.730Z,155.08
2022-12-22T10:13:41.737Z,152.10
2022-12-22T10:14:41.700Z,147.38
2022-12-22T10:15:41.696Z,142.46
2022-12-22T10:16:41.690Z,137.74
2022-12-22T10:17:41.662Z,133.75
2022-12-22T10:18:41.663Z,130.60
2022-12-22T10:19:41.701Z,129.08
2022-12-22T10:20:41.672Z,127.98
2022-12-22T10:21:46.617Z,126.71
2022-12-22T10:22:41.639Z,125.95
2022-12-22T10:23:41.702Z,125.57
2022-12-22T10:24:41.874Z,125.57
2022-12-22T10:26:41.693Z,120.38
2022-12-22T10:27:46.742Z,117.82
2022-12-22T10:28:41.747Z,114.10
2022-12-22T10:29:41.693Z,111.20
2022-12-22T10:30:41.534Z,108.80
2022-12-22T10:31:41.553Z,106.30
2022-12-22T10:32:41.513Z,103.97
2022-12-22T10:33:46.740Z,101.31
2022-12-22T10:34:41.510Z,98.55
2022-12-22T10:35:41.493Z,96.21
2022-12-22T10:36:41.653Z,93.98
2022-12-22T10:37:41.939Z,93.93
2022-12-22T10:38:41.534Z,94.84
2022-12-22T10:39:41.446Z,94.73
2022-12-22T10:40:41.459Z,95.93
2022-12-22T10:41:41.445Z,96.54
2022-12-22T10:42:41.451Z,97.74
2022-12-22T10:43:41.439Z,98.37
2022-12-22T10:44:41.396Z,98.26
2022-12-22T10:45:41.446Z,100.15
2022-12-22T10:46:41.396Z,100.57
2022-12-22T10:47:41.381Z,102.06
2022-12-22T10:48:41.360Z,104.36
2022-12-22T10:50:13.096Z,81.95
2022-12-22T10:51:14.028Z,93.87
2022-12-22T10:52:14.127Z,103.39
2022-12-22T10:53:14.684Z,110.83
2022-12-22T10:54:14.002Z,116.26
2022-12-22T10:55:14.003Z,119.43
2022-12-22T10:56:14.044Z,122.69
2022-12-22T10:57:13.997Z,125.47
2022-12-22T10:58:14.036Z,126.52
2022-12-22T10:59:14.029Z,129.18
2022-12-22T11:00:13.934Z,131.94
2022-12-22T11:01:13.961Z,133.11
2022-12-22T11:02:14.135Z,136.61
2022-12-22T11:03:17.561Z,139.94
2022-12-22T11:04:13.916Z,141.73
2022-12-22T11:05:14.105Z,140.29
2022-12-22T11:06:13.895Z,142.46
2022-12-22T11:07:13.881Z,145.71
2022-12-22T11:08:13.861Z,145.71
2022-12-22T11:09:32.503Z,145.71
2022-12-22T11:10:13.845Z,145.96
2022-12-22T11:11:13.929Z,146.22
2022-12-22T11:12:13.842Z,146.22
2022-12-22T11:13:13.811Z,147.25
2022-12-22T11:14:13.801Z,147.91
2022-12-22T11:15:18.523Z,146.99
2022-12-22T11:16:13.859Z,148.30
2022-12-22T11:17:13.812Z,150.73
2022-12-22T11:18:13.891Z,153.51
2022-12-22T11:19:13.760Z,158.79
2022-12-22T11:20:13.775Z,166.25
2022-12-22T11:21:17.321Z,172.10
2022-12-22T11:22:13.754Z,173.72
2022-12-22T11:23:13.728Z,180.71
2022-12-22T11:24:13.837Z,185.03
2022-12-22T11:25:13.699Z,194.49
2022-12-22T11:26:13.981Z,209.05
2022-12-22T11:27:13.707Z,212.72
2022-12-22T11:28:13.734Z,211.07
2022-12-22T11:29:13.649Z,209.85
2022-12-22T11:30:13.933Z,210.66
2022-12-22T11:31:13.769Z,205.89
2022-12-22T11:32:13.647Z,202.32
2022-12-22T11:33:13.810Z,211.21
2022-12-22T11:34:20.635Z,213.41
2022-12-22T11:35:13.606Z,212.72
2022-12-22T11:36:13.603Z,215.10
2022-12-22T11:37:13.724Z,218.40
2022-12-22T11:38:13.655Z,222.72
2022-12-22T11:39:13.612Z,226.11
2022-12-22T11:40:13.549Z,226.27
2022-12-22T11:41:13.527Z,228.64
2022-12-22T11:42:13.677Z,235.90
2022-12-22T11:43:13.540Z,243.82
2022-12-22T11:44:13.524Z,252.68
2022-12-22T11:45:13.572Z,252.87
2022-12-22T11:46:13.519Z,247.88
2022-12-22T11:47:13.489Z,252.48
2022-12-22T11:48:13.461Z,254.84
2022-12-22T11:49:13.485Z,249.40
2022-12-22T11:51:01.888Z,246.95
2022-12-22T11:51:13.745Z,251.90
2022-12-22T11:52:13.605Z,249.78
2022-12-22T11:53:13.443Z,245.65
2022-12-22T11:54:13.441Z,239.88
2022-12-22T11:55:13.391Z,243.27
2022-12-22T11:56:13.423Z,245.10
2022-12-22T11:57:13.428Z,256.04
2022-12-22T11:58:13.518Z,273.84
2022-12-22T11:59:13.448Z,274.53
2022-12-22T12:00:13.421Z,278.75
2022-12-22T12:01:18.976Z,277.09
2022-12-22T12:02:13.506Z,271.79
2022-12-22T12:03:13.541Z,271.12
2022-12-22T12:04:13.360Z,278.75
2022-12-22T12:05:13.370Z,286.57
2022-12-22T12:06:13.317Z,299.98
2022-12-22T12:07:13.284Z,321.83
2022-12-22T12:08:13.277Z,336.41
2022-12-22T12:09:13.281Z,338.85
2022-12-22T12:10:13.247Z,341.32
2022-12-22T12:11:13.377Z,343.48
2022-12-22T12:12:13.282Z,350.47
2022-12-22T12:13:13.229Z,352.36
2022-12-22T12:14:15.660Z,361.32
2022-12-22T12:15:13.193Z,380.71
2022-12-22T12:16:13.228Z,398.76
2022-12-22T12:17:13.208Z,408.57
2022-12-22T12:18:13.170Z,404.83
2022-12-22T12:19:13.172Z,397.33
2022-12-22T12:20:13.162Z,392.86
2022-12-22T12:21:13.139Z,403.85
2022-12-22T12:22:13.757Z,405.08
2022-12-22T12:23:13.128Z,413.40
2022-12-22T12:24:13.129Z,438.79
2022-12-22T12:25:13.148Z,462.31
2022-12-22T12:26:13.105Z,466.86
2022-12-22T12:27:13.146Z,456.27
2022-12-22T12:28:13.123Z,453.78
2022-12-22T12:29:13.136Z,465.87
2022-12-22T12:30:37.560Z,479.32
2022-12-22T12:31:13.210Z,482.45
2022-12-22T12:32:13.152Z,476.91
2022-12-22T12:33:13.018Z,481.05
2022-12-22T12:34:13.139Z,499.50
2022-12-22T12:35:13.122Z,516.19
2022-12-22T12:36:13.057Z,543.20
2022-12-22T12:37:12.987Z,567.32
2022-12-22T12:38:32.281Z,582.24
2022-12-22T12:39:13.018Z,592.10
2022-12-22T12:40:12.977Z,609.48
2022-12-22T12:41:12.945Z,626.14
2022-12-22T12:42:13.015Z,649.40
2022-12-22T12:43:16.509Z,657.76
2022-12-22T12:44:12.911Z,669.02
2022-12-22T12:45:12.952Z,703.00